sensor_id;sensor_type;location;lat;lon;timestamp;P1;durP1;ratioP1;P2;durP2;ratioP2
25609;SDS011;13479;49.044;8.716;2023-05-10T04:01:06;6.25;;;2.30;;
25609;SDS011;13479;49.044;8.716;2023-05-10T04:03:31;4.22;;;3.03;;
25609;SDS011;13479;49.044;8.716;2023-05-10T04:06:00;4.00;;;3.13;;
25609;SDS011;13479;49.044;8.716;2023-05-10T04:08:26;5.35;;;3.30;;
25609;SDS011;13479;49.044;8.716;2023-05-10T04:10:51;3.40;;;2.80;;
25609;SDS011;13479;49.044;8.716;2023-05-10T04:13:17;7.45;;;2.55;;
25609;SDS011;13479;49.044;8.716;2023-05-10T04:15:42;3.90;;;2.80;;
25609;SDS011;13479;49.044;8.716;2023-05-10T04:18:08;5.35;;;3.30;;
25609;SDS011;13479;49.044;8.716;2023-05-10T04:20:33;5.15;;;3.28;;
25609;SDS011;13479;49.044;8.716;2023-05-10T04:22:59;6.55;;;3.20;;
25609;SDS011;13479;49.044;8.716;2023-05-10T04:25:24;3.55;;;3.08;;
25609;SDS011;13479;49.044;8.716;2023-05-10T04:27:49;5.53;;;2.85;;
25609;SDS011;13479;49.044;8.716;2023-05-10T04:30:14;5.53;;;2.80;;
25609;SDS011;13479;49.044;8.716;2023-05-10T04:32:40;7.05;;;3.80;;
25609;SDS011;13479;49.044;8.716;2023-05-10T04:35:05;6.00;;;3.00;;
25609;SDS011;13479;49.044;8.716;2023-05-10T04:37:31;5.63;;;3.88;;
25609;SDS011;13479;49.044;8.716;2023-05-10T04:39:56;3.50;;;3.00;;
25609;SDS011;13479;49.044;8.716;2023-05-10T04:42:21;5.82;;;2.90;;
25609;SDS011;13479;49.044;8.716;2023-05-10T04:44:46;7.78;;;2.95;;
25609;SDS011;13479;49.044;8.716;2023-05-10T04:47:12;4.63;;;2.60;;
25609;SDS011;13479;49.044;8.716;2023-05-10T04:49:38;4.82;;;2.90;;
25609;SDS011;13479;49.044;8.716;2023-05-10T04:52:03;5.45;;;3.28;;
25609;SDS011;13479;49.044;8.716;2023-05-10T04:54:28;3.38;;;2.88;;
25609;SDS011;13479;49.044;8.716;2023-05-10T04:56:54;3.45;;;2.67;;
25609;SDS011;13479;49.044;8.716;2023-05-10T04:59:19;2.90;;;2.63;;
25609;SDS011;13479;49.044;8.716;2023-05-10T05:01:44;4.43;;;2.30;;
25609;SDS011;13479;49.044;8.716;2023-05-10T05:04:09;3.55;;;2.40;;
25609;SDS011;13479;49.044;8.716;2023-05-10T05:06:35;3.63;;;2.63;;
25609;SDS011;13479;49.044;8.716;2023-05-10T05:09:00;5.18;;;2.58;;
25609;SDS011;13479;49.044;8.716;2023-05-10T05:11:25;4.85;;;2.85;;
25609;SDS011;13479;49.044;8.716;2023-05-10T05:13:51;4.20;;;2.15;;
25609;SDS011;13479;49.044;8.716;2023-05-10T05:16:16;3.97;;;2.40;;
25609;SDS011;13479;49.044;8.716;2023-05-10T05:18:41;3.47;;;2.30;;
25609;SDS011;13479;49.044;8.716;2023-05-10T05:21:13;3.20;;;2.33;;
25609;SDS011;13479;49.044;8.716;2023-05-10T05:23:42;3.17;;;2.20;;
25609;SDS011;13479;49.044;8.716;2023-05-10T05:26:07;5.22;;;2.50;;
25609;SDS011;13479;49.044;8.716;2023-05-10T05:28:33;3.80;;;2.50;;
25609;SDS011;13479;49.044;8.716;2023-05-10T05:31:02;4.40;;;2.30;;
25609;SDS011;13479;49.044;8.716;2023-05-10T05:33:27;3.78;;;2.47;;
25609;SDS011;13479;49.044;8.716;2023-05-10T05:35:52;4.38;;;2.20;;
25609;SDS011;13479;49.044;8.716;2023-05-10T05:38:17;4.28;;;2.40;;
25609;SDS011;13479;49.044;8.716;2023-05-10T05:40:43;4.68;;;2.97;;
25609;SDS011;13479;49.044;8.716;2023-05-10T05:43:08;3.92;;;2.45;;
25609;SDS011;13479;49.044;8.716;2023-05-10T05:45:33;6.47;;;2.33;;
25609;SDS011;13479;49.044;8.716;2023-05-10T05:47:59;3.42;;;2.15;;
25609;SDS011;13479;49.044;8.716;2023-05-10T05:50:24;6.35;;;2.03;;
25609;SDS011;13479;49.044;8.716;2023-05-10T05:52:49;5.13;;;2.10;;
25609;SDS011;13479;49.044;8.716;2023-05-10T05:55:15;3.63;;;2.00;;
25609;SDS011;13479;49.044;8.716;2023-05-10T05:57:40;5.57;;;2.00;;
25609;SDS011;13479;49.044;8.716;2023-05-10T06:00:05;4.15;;;1.83;;
25609;SDS011;13479;49.044;8.716;2023-05-10T06:02:31;2.75;;;1.98;;
25609;SDS011;13479;49.044;8.716;2023-05-10T06:04:56;3.25;;;1.55;;
25609;SDS011;13479;49.044;8.716;2023-05-10T06:07:22;2.22;;;1.52;;
25609;SDS011;13479;49.044;8.716;2023-05-10T06:09:47;2.45;;;1.58;;
25609;SDS011;13479;49.044;8.716;2023-05-10T06:12:12;2.60;;;1.52;;
25609;SDS011;13479;49.044;8.716;2023-05-10T06:14:38;3.67;;;1.55;;
25609;SDS011;13479;49.044;8.716;2023-05-10T06:17:03;2.85;;;1.40;;
25609;SDS011;13479;49.044;8.716;2023-05-10T06:19:29;1.83;;;1.20;;
25609;SDS011;13479;49.044;8.716;2023-05-10T06:21:55;2.55;;;1.27;;
25609;SDS011;13479;49.044;8.716;2023-05-10T06:24:20;3.35;;;1.17;;
25609;SDS011;13479;49.044;8.716;2023-05-10T06:26:46;7.13;;;1.10;;
25609;SDS011;13479;49.044;8.716;2023-05-10T06:29:11;2.53;;;1.20;;
25609;SDS011;13479;49.044;8.716;2023-05-10T06:31:37;1.63;;;0.88;;
25609;SDS011;13479;49.044;8.716;2023-05-10T06:34:02;3.15;;;0.82;;
25609;SDS011;13479;49.044;8.716;2023-05-10T06:36:27;3.63;;;0.95;;
25609;SDS011;13479;49.044;8.716;2023-05-10T06:38:53;4.40;;;0.95;;
25609;SDS011;13479;49.044;8.716;2023-05-10T06:41:18;2.25;;;0.95;;
25609;SDS011;13479;49.044;8.716;2023-05-10T06:43:43;2.47;;;1.10;;
25609;SDS011;13479;49.044;8.716;2023-05-10T06:46:08;1.75;;;0.98;;
25609;SDS011;13479;49.044;8.716;2023-05-10T06:48:34;1.58;;;0.93;;
25609;SDS011;13479;49.044;8.716;2023-05-10T06:50:59;1.08;;;0.77;;
25609;SDS011;13479;49.044;8.716;2023-05-10T06:53:26;3.10;;;0.93;;
25609;SDS011;13479;49.044;8.716;2023-05-10T06:55:52;6.70;;;1.10;;
25609;SDS011;13479;49.044;8.716;2023-05-10T06:58:17;1.73;;;0.90;;
25609;SDS011;13479;49.044;8.716;2023-05-10T07:00:42;4.07;;;0.82;;
25609;SDS011;13479;49.044;8.716;2023-05-10T07:03:09;2.15;;;0.80;;
25609;SDS011;13479;49.044;8.716;2023-05-10T07:05:34;1.45;;;1.00;;
25609;SDS011;13479;49.044;8.716;2023-05-10T07:08:00;3.08;;;0.88;;
25609;SDS011;13479;49.044;8.716;2023-05-10T07:10:25;3.53;;;1.48;;
25609;SDS011;13479;49.044;8.716;2023-05-10T07:12:51;1.70;;;0.90;;
25609;SDS011;13479;49.044;8.716;2023-05-10T07:15:16;2.25;;;0.85;;
25609;SDS011;13479;49.044;8.716;2023-05-10T07:17:42;1.10;;;0.70;;
25609;SDS011;13479;49.044;8.716;2023-05-10T07:20:07;2.72;;;0.90;;
25609;SDS011;13479;49.044;8.716;2023-05-10T07:22:33;1.63;;;0.90;;
25609;SDS011;13479;49.044;8.716;2023-05-10T07:24:58;1.05;;;0.85;;
25609;SDS011;13479;49.044;8.716;2023-05-10T07:27:24;2.83;;;0.70;;
25609;SDS011;13479;49.044;8.716;2023-05-10T07:29:49;1.20;;;0.65;;
25609;SDS011;13479;49.044;8.716;2023-05-10T07:32:14;0.82;;;0.70;;
25609;SDS011;13479;49.044;8.716;2023-05-10T07:34:39;2.40;;;0.60;;
25609;SDS011;13479;49.044;8.716;2023-05-10T07:37:05;2.75;;;0.70;;
25609;SDS011;13479;49.044;8.716;2023-05-10T07:39:31;3.30;;;0.98;;
25609;SDS011;13479;49.044;8.716;2023-05-10T07:41:56;0.82;;;0.68;;
25609;SDS011;13479;49.044;8.716;2023-05-10T07:44:21;3.10;;;0.70;;
25609;SDS011;13479;49.044;8.716;2023-05-10T07:46:47;1.02;;;0.60;;
25609;SDS011;13479;49.044;8.716;2023-05-10T07:49:13;4.40;;;0.77;;
25609;SDS011;13479;49.044;8.716;2023-05-10T07:51:38;2.75;;;0.60;;
25609;SDS011;13479;49.044;8.716;2023-05-10T07:54:04;1.08;;;0.60;;
25609;SDS011;13479;49.044;8.716;2023-05-10T07:56:30;3.70;;;0.60;;
25609;SDS011;13479;49.044;8.716;2023-05-10T07:58:57;1.20;;;0.60;;
25609;SDS011;13479;49.044;8.716;2023-05-10T08:01:26;2.58;;;0.70;;
25609;SDS011;13479;49.044;8.716;2023-05-10T08:03:52;2.50;;;0.63;;
25609;SDS011;13479;49.044;8.716;2023-05-10T08:06:18;1.05;;;0.52;;
25609;SDS011;13479;49.044;8.716;2023-05-10T08:08:45;0.90;;;0.50;;
25609;SDS011;13479;49.044;8.716;2023-05-10T08:11:14;0.60;;;0.47;;
25609;SDS011;13479;49.044;8.716;2023-05-10T08:13:43;0.90;;;0.50;;
25609;SDS011;13479;49.044;8.716;2023-05-10T08:16:09;1.75;;;0.70;;
25609;SDS011;13479;49.044;8.716;2023-05-10T08:18:34;1.95;;;0.50;;
25609;SDS011;13479;49.044;8.716;2023-05-10T08:20:59;1.13;;;0.60;;
25609;SDS011;13479;49.044;8.716;2023-05-10T08:23:24;1.17;;;0.80;;
25609;SDS011;13479;49.044;8.716;2023-05-10T08:25:50;1.70;;;0.60;;
25609;SDS011;13479;49.044;8.716;2023-05-10T08:28:15;2.33;;;0.70;;
25609;SDS011;13479;49.044;8.716;2023-05-10T08:30:40;1.35;;;0.60;;
25609;SDS011;13479;49.044;8.716;2023-05-10T08:33:05;1.55;;;0.75;;
25609;SDS011;13479;49.044;8.716;2023-05-10T08:35:31;2.42;;;0.50;;
25609;SDS011;13479;49.044;8.716;2023-05-10T08:37:58;2.50;;;0.70;;
25609;SDS011;13479;49.044;8.716;2023-05-10T08:40:23;0.90;;;0.60;;
25609;SDS011;13479;49.044;8.716;2023-05-10T08:43:01;0.70;;;0.60;;
25609;SDS011;13479;49.044;8.716;2023-05-10T08:45:32;2.58;;;0.60;;
25609;SDS011;13479;49.044;8.716;2023-05-10T08:48:01;2.72;;;0.52;;
25609;SDS011;13479;49.044;8.716;2023-05-10T08:50:30;0.57;;;0.47;;
25609;SDS011;13479;49.044;8.716;2023-05-10T08:52:57;1.55;;;0.60;;
25609;SDS011;13479;49.044;8.716;2023-05-10T08:55:25;1.30;;;0.70;;
25609;SDS011;13479;49.044;8.716;2023-05-10T08:57:50;3.13;;;0.50;;
25609;SDS011;13479;49.044;8.716;2023-05-10T09:00:16;1.50;;;0.70;;
25609;SDS011;13479;49.044;8.716;2023-05-10T09:02:43;1.88;;;0.50;;
25609;SDS011;13479;49.044;8.716;2023-05-10T09:05:10;2.42;;;0.60;;
25609;SDS011;13479;49.044;8.716;2023-05-10T09:07:36;4.32;;;0.82;;
25609;SDS011;13479;49.044;8.716;2023-05-10T09:10:01;2.25;;;0.52;;
25609;SDS011;13479;49.044;8.716;2023-05-10T09:12:27;0.68;;;0.50;;
25609;SDS011;13479;49.044;8.716;2023-05-10T09:14:53;1.23;;;0.55;;
25609;SDS011;13479;49.044;8.716;2023-05-10T09:17:19;2.13;;;0.47;;
25609;SDS011;13479;49.044;8.716;2023-05-10T09:19:46;3.03;;;0.70;;
25609;SDS011;13479;49.044;8.716;2023-05-10T09:22:11;1.52;;;0.60;;
25609;SDS011;13479;49.044;8.716;2023-05-10T09:24:37;0.85;;;0.65;;
25609;SDS011;13479;49.044;8.716;2023-05-10T09:27:07;1.45;;;0.70;;
25609;SDS011;13479;49.044;8.716;2023-05-10T09:29:39;3.08;;;0.68;;
25609;SDS011;13479;49.044;8.716;2023-05-10T09:32:05;3.03;;;0.70;;
25609;SDS011;13479;49.044;8.716;2023-05-10T09:34:31;0.90;;;0.50;;
25609;SDS011;13479;49.044;8.716;2023-05-10T09:36:59;1.30;;;0.70;;
25609;SDS011;13479;49.044;8.716;2023-05-10T09:39:35;0.95;;;0.50;;
25609;SDS011;13479;49.044;8.716;2023-05-10T09:42:03;1.95;;;0.70;;
25609;SDS011;13479;49.044;8.716;2023-05-10T09:44:34;1.17;;;0.68;;
25609;SDS011;13479;49.044;8.716;2023-05-10T09:47:00;1.08;;;0.63;;
25609;SDS011;13479;49.044;8.716;2023-05-10T09:49:26;1.67;;;0.57;;
25609;SDS011;13479;49.044;8.716;2023-05-10T09:52:05;1.85;;;0.70;;
25609;SDS011;13479;49.044;8.716;2023-05-10T09:54:31;1.33;;;0.63;;
25609;SDS011;13479;49.044;8.716;2023-05-10T09:56:57;2.72;;;0.82;;
25609;SDS011;13479;49.044;8.716;2023-05-10T09:59:24;1.20;;;0.60;;
25609;SDS011;13479;49.044;8.716;2023-05-10T10:01:52;2.33;;;0.90;;
25609;SDS011;13479;49.044;8.716;2023-05-10T10:04:25;2.60;;;1.00;;
25609;SDS011;13479;49.044;8.716;2023-05-10T10:07:01;8.40;;;1.20;;
25609;SDS011;13479;49.044;8.716;2023-05-10T10:09:28;2.22;;;0.80;;
25609;SDS011;13479;49.044;8.716;2023-05-10T10:11:54;4.32;;;0.80;;
25609;SDS011;13479;49.044;8.716;2023-05-10T10:14:19;2.67;;;0.77;;
25609;SDS011;13479;49.044;8.716;2023-05-10T10:16:46;1.88;;;0.93;;
25609;SDS011;13479;49.044;8.716;2023-05-10T10:19:12;1.45;;;0.80;;
25609;SDS011;13479;49.044;8.716;2023-05-10T10:21:37;2.83;;;0.80;;
25609;SDS011;13479;49.044;8.716;2023-05-10T10:24:03;3.40;;;0.60;;
25609;SDS011;13479;49.044;8.716;2023-05-10T10:26:30;1.58;;;0.93;;
25609;SDS011;13479;49.044;8.716;2023-05-10T10:29:10;2.13;;;0.70;;
25609;SDS011;13479;49.044;8.716;2023-05-10T10:31:45;2.05;;;0.70;;
25609;SDS011;13479;49.044;8.716;2023-05-10T10:34:25;1.83;;;0.60;;
25609;SDS011;13479;49.044;8.716;2023-05-10T10:36:52;3.58;;;0.80;;
25609;SDS011;13479;49.044;8.716;2023-05-10T10:39:19;2.25;;;0.90;;
25609;SDS011;13479;49.044;8.716;2023-05-10T10:41:49;1.73;;;0.70;;
25609;SDS011;13479;49.044;8.716;2023-05-10T10:49:42;3.78;;;0.90;;
25609;SDS011;13479;49.044;8.716;2023-05-10T10:54:38;0.90;;;0.60;;
25609;SDS011;13479;49.044;8.716;2023-05-10T10:57:13;1.25;;;0.70;;
25609;SDS011;13479;49.044;8.716;2023-05-10T10:59:41;3.85;;;0.80;;
25609;SDS011;13479;49.044;8.716;2023-05-10T11:02:07;2.78;;;0.95;;
25609;SDS011;13479;49.044;8.716;2023-05-10T11:04:41;7.00;;;1.88;;
25609;SDS011;13479;49.044;8.716;2023-05-10T11:07:17;2.75;;;1.10;;
25609;SDS011;13479;49.044;8.716;2023-05-10T11:09:43;3.05;;;0.90;;
25609;SDS011;13479;49.044;8.716;2023-05-10T11:12:09;4.47;;;1.75;;
25609;SDS011;13479;49.044;8.716;2023-05-10T11:14:34;4.45;;;1.30;;
25609;SDS011;13479;49.044;8.716;2023-05-10T11:17:01;3.08;;;1.00;;
25609;SDS011;13479;49.044;8.716;2023-05-10T11:19:29;5.60;;;1.25;;
25609;SDS011;13479;49.044;8.716;2023-05-10T11:24:28;1.65;;;0.95;;
25609;SDS011;13479;49.044;8.716;2023-05-10T11:26:54;2.85;;;0.90;;
25609;SDS011;13479;49.044;8.716;2023-05-10T11:29:19;6.10;;;1.17;;
25609;SDS011;13479;49.044;8.716;2023-05-10T11:31:45;3.53;;;1.30;;
25609;SDS011;13479;49.044;8.716;2023-05-10T11:34:22;2.65;;;1.20;;
25609;SDS011;13479;49.044;8.716;2023-05-10T11:36:55;2.67;;;0.93;;
25609;SDS011;13479;49.044;8.716;2023-05-10T11:39:24;1.50;;;0.80;;
25609;SDS011;13479;49.044;8.716;2023-05-10T11:41:52;4.03;;;0.90;;
25609;SDS011;13479;49.044;8.716;2023-05-10T11:44:17;2.35;;;1.00;;
25609;SDS011;13479;49.044;8.716;2023-05-10T11:46:42;3.25;;;1.08;;
25609;SDS011;13479;49.044;8.716;2023-05-10T11:49:08;3.42;;;1.00;;
25609;SDS011;13479;49.044;8.716;2023-05-10T11:51:34;5.78;;;1.17;;
25609;SDS011;13479;49.044;8.716;2023-05-10T11:54:07;1.70;;;0.80;;
25609;SDS011;13479;49.044;8.716;2023-05-10T11:56:34;3.13;;;1.10;;
25609;SDS011;13479;49.044;8.716;2023-05-10T11:58:59;5.30;;;1.10;;
25609;SDS011;13479;49.044;8.716;2023-05-10T12:01:26;1.95;;;0.88;;
25609;SDS011;13479;49.044;8.716;2023-05-10T12:03:53;3.05;;;0.90;;
25609;SDS011;13479;49.044;8.716;2023-05-10T12:06:25;4.72;;;1.10;;
25609;SDS011;13479;49.044;8.716;2023-05-10T12:08:52;2.80;;;0.98;;
25609;SDS011;13479;49.044;8.716;2023-05-10T12:11:18;2.85;;;0.77;;
25609;SDS011;13479;49.044;8.716;2023-05-10T12:13:44;3.10;;;0.80;;
25609;SDS011;13479;49.044;8.716;2023-05-10T12:16:22;3.03;;;1.10;;
25609;SDS011;13479;49.044;8.716;2023-05-10T12:18:50;2.08;;;0.88;;
25609;SDS011;13479;49.044;8.716;2023-05-10T12:21:17;6.93;;;1.00;;
25609;SDS011;13479;49.044;8.716;2023-05-10T12:23:45;4.10;;;1.00;;
25609;SDS011;13479;49.044;8.716;2023-05-10T12:26:15;3.00;;;1.00;;
25609;SDS011;13479;49.044;8.716;2023-05-10T12:28:41;2.03;;;0.80;;
25609;SDS011;13479;49.044;8.716;2023-05-10T12:31:07;3.30;;;0.70;;
25609;SDS011;13479;49.044;8.716;2023-05-10T12:33:36;3.13;;;0.82;;
25609;SDS011;13479;49.044;8.716;2023-05-10T12:36:07;3.42;;;0.65;;
25609;SDS011;13479;49.044;8.716;2023-05-10T12:41:01;1.85;;;0.60;;
25609;SDS011;13479;49.044;8.716;2023-05-10T12:43:28;2.75;;;0.68;;
25609;SDS011;13479;49.044;8.716;2023-05-10T12:45:54;1.58;;;0.60;;
25609;SDS011;13479;49.044;8.716;2023-05-10T12:48:20;3.03;;;0.70;;
25609;SDS011;13479;49.044;8.716;2023-05-10T12:50:45;3.67;;;0.80;;
25609;SDS011;13479;49.044;8.716;2023-05-10T12:53:12;3.00;;;0.55;;
25609;SDS011;13479;49.044;8.716;2023-05-10T12:55:40;2.25;;;0.40;;
25609;SDS011;13479;49.044;8.716;2023-05-10T12:58:05;4.60;;;0.60;;
25609;SDS011;13479;49.044;8.716;2023-05-10T13:00:30;1.52;;;0.60;;
25609;SDS011;13479;49.044;8.716;2023-05-10T13:02:56;3.10;;;0.50;;
25609;SDS011;13479;49.044;8.716;2023-05-10T13:05:21;4.72;;;0.60;;
25609;SDS011;13479;49.044;8.716;2023-05-10T13:07:46;3.03;;;0.60;;
25609;SDS011;13479;49.044;8.716;2023-05-10T13:10:11;2.35;;;0.60;;
25609;SDS011;13479;49.044;8.716;2023-05-10T13:12:37;2.60;;;0.68;;
25609;SDS011;13479;49.044;8.716;2023-05-10T13:15:02;2.58;;;0.70;;
25609;SDS011;13479;49.044;8.716;2023-05-10T13:17:28;2.25;;;0.68;;
25609;SDS011;13479;49.044;8.716;2023-05-10T13:19:53;1.52;;;0.50;;
25609;SDS011;13479;49.044;8.716;2023-05-10T13:22:18;1.98;;;0.60;;
25609;SDS011;13479;49.044;8.716;2023-05-10T13:24:44;2.38;;;0.60;;
25609;SDS011;13479;49.044;8.716;2023-05-10T13:27:09;1.42;;;0.60;;
25609;SDS011;13479;49.044;8.716;2023-05-10T13:29:34;3.72;;;0.57;;
25609;SDS011;13479;49.044;8.716;2023-05-10T13:31:59;1.20;;;0.50;;
25609;SDS011;13479;49.044;8.716;2023-05-10T13:34:25;3.22;;;0.50;;
25609;SDS011;13479;49.044;8.716;2023-05-10T13:36:50;2.38;;;0.70;;
25609;SDS011;13479;49.044;8.716;2023-05-10T13:39:15;1.92;;;0.60;;
25609;SDS011;13479;49.044;8.716;2023-05-10T13:41:41;2.78;;;0.68;;
25609;SDS011;13479;49.044;8.716;2023-05-10T13:44:07;2.72;;;0.50;;
25609;SDS011;13479;49.044;8.716;2023-05-10T13:46:32;3.80;;;0.55;;
25609;SDS011;13479;49.044;8.716;2023-05-10T13:48:57;2.28;;;0.50;;
25609;SDS011;13479;49.044;8.716;2023-05-10T13:51:22;3.25;;;0.50;;
25609;SDS011;13479;49.044;8.716;2023-05-10T13:53:48;1.88;;;0.57;;
25609;SDS011;13479;49.044;8.716;2023-05-10T13:56:13;1.75;;;0.60;;
25609;SDS011;13479;49.044;8.716;2023-05-10T13:58:39;1.83;;;0.43;;
25609;SDS011;13479;49.044;8.716;2023-05-10T14:01:04;0.70;;;0.50;;
25609;SDS011;13479;49.044;8.716;2023-05-10T14:03:29;1.30;;;0.60;;
25609;SDS011;13479;49.044;8.716;2023-05-10T14:05:55;1.45;;;0.60;;
25609;SDS011;13479;49.044;8.716;2023-05-10T14:08:21;4.50;;;0.68;;
25609;SDS011;13479;49.044;8.716;2023-05-10T14:10:46;2.88;;;0.60;;
25609;SDS011;13479;49.044;8.716;2023-05-10T14:13:11;3.35;;;0.70;;
25609;SDS011;13479;49.044;8.716;2023-05-10T14:15:37;1.15;;;0.50;;
25609;SDS011;13479;49.044;8.716;2023-05-10T14:18:02;0.93;;;0.50;;
25609;SDS011;13479;49.044;8.716;2023-05-10T14:20:27;0.68;;;0.40;;
25609;SDS011;13479;49.044;8.716;2023-05-10T14:22:53;1.70;;;0.40;;
25609;SDS011;13479;49.044;8.716;2023-05-10T14:25:19;1.83;;;0.60;;
25609;SDS011;13479;49.044;8.716;2023-05-10T14:27:44;0.98;;;0.40;;
25609;SDS011;13479;49.044;8.716;2023-05-10T14:30:09;1.33;;;0.40;;
25609;SDS011;13479;49.044;8.716;2023-05-10T14:32:35;1.90;;;0.40;;
25609;SDS011;13479;49.044;8.716;2023-05-10T14:35:01;1.67;;;0.52;;
25609;SDS011;13479;49.044;8.716;2023-05-10T14:37:27;0.95;;;0.45;;
25609;SDS011;13479;49.044;8.716;2023-05-10T14:39:52;3.42;;;0.50;;
25609;SDS011;13479;49.044;8.716;2023-05-10T14:42:17;1.15;;;0.57;;
25609;SDS011;13479;49.044;8.716;2023-05-10T14:44:42;1.10;;;0.70;;
25609;SDS011;13479;49.044;8.716;2023-05-10T14:47:09;2.75;;;0.40;;
25609;SDS011;13479;49.044;8.716;2023-05-10T14:49:34;2.15;;;0.60;;
25609;SDS011;13479;49.044;8.716;2023-05-10T14:51:59;1.45;;;0.50;;
25609;SDS011;13479;49.044;8.716;2023-05-10T14:54:24;1.15;;;0.63;;
25609;SDS011;13479;49.044;8.716;2023-05-10T14:56:50;1.30;;;0.60;;
25609;SDS011;13479;49.044;8.716;2023-05-10T14:59:15;2.70;;;0.68;;
25609;SDS011;13479;49.044;8.716;2023-05-10T15:01:40;1.30;;;0.60;;
25609;SDS011;13479;49.044;8.716;2023-05-10T15:04:07;4.60;;;0.63;;
25609;SDS011;13479;49.044;8.716;2023-05-10T15:06:32;1.15;;;0.60;;
25609;SDS011;13479;49.044;8.716;2023-05-10T15:08:59;1.52;;;0.70;;
25609;SDS011;13479;49.044;8.716;2023-05-10T15:11:25;2.38;;;0.68;;
25609;SDS011;13479;49.044;8.716;2023-05-10T15:13:50;3.80;;;0.60;;
25609;SDS011;13479;49.044;8.716;2023-05-10T15:16:16;1.48;;;0.60;;
25609;SDS011;13479;49.044;8.716;2023-05-10T15:18:41;1.83;;;0.73;;
25609;SDS011;13479;49.044;8.716;2023-05-10T15:21:06;2.72;;;0.50;;
25609;SDS011;13479;49.044;8.716;2023-05-10T15:23:31;2.03;;;0.60;;
25609;SDS011;13479;49.044;8.716;2023-05-10T15:25:57;0.80;;;0.50;;
25609;SDS011;13479;49.044;8.716;2023-05-10T15:28:22;1.98;;;0.60;;
25609;SDS011;13479;49.044;8.716;2023-05-10T15:30:47;1.00;;;0.43;;
25609;SDS011;13479;49.044;8.716;2023-05-10T15:33:13;1.42;;;0.60;;
25609;SDS011;13479;49.044;8.716;2023-05-10T15:35:38;3.78;;;0.60;;
25609;SDS011;13479;49.044;8.716;2023-05-10T15:40:42;1.45;;;0.50;;
25609;SDS011;13479;49.044;8.716;2023-05-10T15:43:07;2.53;;;0.55;;
25609;SDS011;13479;49.044;8.716;2023-05-10T15:45:32;4.05;;;0.70;;
25609;SDS011;13479;49.044;8.716;2023-05-10T15:47:58;3.13;;;0.60;;
25609;SDS011;13479;49.044;8.716;2023-05-10T15:50:24;2.42;;;0.60;;
25609;SDS011;13479;49.044;8.716;2023-05-10T15:52:49;1.98;;;0.60;;
25609;SDS011;13479;49.044;8.716;2023-05-10T15:55:14;1.77;;;0.50;;
25609;SDS011;13479;49.044;8.716;2023-05-10T15:57:41;2.30;;;0.50;;
25609;SDS011;13479;49.044;8.716;2023-05-10T16:00:08;1.40;;;0.57;;
25609;SDS011;13479;49.044;8.716;2023-05-10T16:02:35;3.08;;;0.50;;
25609;SDS011;13479;49.044;8.716;2023-05-10T16:05:01;1.15;;;0.35;;
25609;SDS011;13479;49.044;8.716;2023-05-10T16:07:26;2.72;;;0.40;;
25609;SDS011;13479;49.044;8.716;2023-05-10T16:09:52;1.52;;;0.40;;
25609;SDS011;13479;49.044;8.716;2023-05-10T16:12:17;1.42;;;0.40;;
25609;SDS011;13479;49.044;8.716;2023-05-10T16:14:42;1.95;;;0.55;;
25609;SDS011;13479;49.044;8.716;2023-05-10T16:17:08;1.70;;;0.60;;
25609;SDS011;13479;49.044;8.716;2023-05-10T16:19:33;4.65;;;0.57;;
25609;SDS011;13479;49.044;8.716;2023-05-10T16:21:58;1.45;;;0.40;;
25609;SDS011;13479;49.044;8.716;2023-05-10T16:24:24;1.48;;;0.63;;
25609;SDS011;13479;49.044;8.716;2023-05-10T16:26:50;1.98;;;0.50;;
25609;SDS011;13479;49.044;8.716;2023-05-10T16:29:15;2.78;;;0.40;;
25609;SDS011;13479;49.044;8.716;2023-05-10T16:31:40;0.98;;;0.50;;
25609;SDS011;13479;49.044;8.716;2023-05-10T16:34:06;2.35;;;0.50;;
25609;SDS011;13479;49.044;8.716;2023-05-10T16:36:31;2.17;;;0.55;;
25609;SDS011;13479;49.044;8.716;2023-05-10T16:38:56;0.70;;;0.40;;
25609;SDS011;13479;49.044;8.716;2023-05-10T16:41:22;2.28;;;0.50;;
25609;SDS011;13479;49.044;8.716;2023-05-10T16:43:47;1.10;;;0.43;;
25609;SDS011;13479;49.044;8.716;2023-05-10T16:46:13;1.30;;;0.50;;
25609;SDS011;13479;49.044;8.716;2023-05-10T16:48:38;1.50;;;0.60;;
25609;SDS011;13479;49.044;8.716;2023-05-10T16:51:03;1.83;;;0.43;;
25609;SDS011;13479;49.044;8.716;2023-05-10T16:53:29;2.80;;;0.40;;
25609;SDS011;13479;49.044;8.716;2023-05-10T16:55:55;1.05;;;0.45;;
25609;SDS011;13479;49.044;8.716;2023-05-10T16:58:20;1.38;;;0.40;;
25609;SDS011;13479;49.044;8.716;2023-05-10T17:00:46;3.95;;;0.57;;
25609;SDS011;13479;49.044;8.716;2023-05-10T17:03:11;1.63;;;0.40;;
25609;SDS011;13479;49.044;8.716;2023-05-10T17:05:36;0.68;;;0.40;;
25609;SDS011;13479;49.044;8.716;2023-05-10T17:08:02;0.93;;;0.50;;
25609;SDS011;13479;49.044;8.716;2023-05-10T17:10:27;1.38;;;0.40;;
25609;SDS011;13479;49.044;8.716;2023-05-10T17:12:52;2.50;;;0.40;;
25609;SDS011;13479;49.044;8.716;2023-05-10T17:15:17;0.70;;;0.40;;
25609;SDS011;13479;49.044;8.716;2023-05-10T17:17:44;0.95;;;0.40;;
25609;SDS011;13479;49.044;8.716;2023-05-10T17:20:09;4.32;;;0.60;;
25609;SDS011;13479;49.044;8.716;2023-05-10T17:22:35;2.92;;;0.40;;
25609;SDS011;13479;49.044;8.716;2023-05-10T17:25:00;0.93;;;0.40;;
25609;SDS011;13479;49.044;8.716;2023-05-10T17:27:26;2.03;;;0.50;;
25609;SDS011;13479;49.044;8.716;2023-05-10T17:29:56;4.22;;;0.50;;
25609;SDS011;13479;49.044;8.716;2023-05-10T17:32:21;2.35;;;0.50;;
25609;SDS011;13479;49.044;8.716;2023-05-10T17:34:47;1.58;;;0.57;;
25609;SDS011;13479;49.044;8.716;2023-05-10T17:37:12;2.13;;;0.50;;
25609;SDS011;13479;49.044;8.716;2023-05-10T17:39:37;1.23;;;0.40;;
25609;SDS011;13479;49.044;8.716;2023-05-10T17:42:03;1.38;;;0.30;;
25609;SDS011;13479;49.044;8.716;2023-05-10T17:44:28;0.80;;;0.50;;
25609;SDS011;13479;49.044;8.716;2023-05-10T17:46:53;0.90;;;0.50;;
25609;SDS011;13479;49.044;8.716;2023-05-10T17:49:19;0.90;;;0.30;;
25609;SDS011;13479;49.044;8.716;2023-05-10T17:51:44;1.88;;;0.40;;
25609;SDS011;13479;49.044;8.716;2023-05-10T17:54:12;1.30;;;0.40;;
25609;SDS011;13479;49.044;8.716;2023-05-10T17:56:37;2.55;;;0.32;;
25609;SDS011;13479;49.044;8.716;2023-05-10T17:59:02;2.25;;;0.30;;
25609;SDS011;13479;49.044;8.716;2023-05-10T18:01:28;1.25;;;0.32;;
25609;SDS011;13479;49.044;8.716;2023-05-10T18:03:53;0.50;;;0.30;;
25609;SDS011;13479;49.044;8.716;2023-05-10T18:06:18;0.85;;;0.25;;
25609;SDS011;13479;49.044;8.716;2023-05-10T18:08:43;2.25;;;0.32;;
25609;SDS011;13479;49.044;8.716;2023-05-10T18:11:09;4.93;;;0.50;;
25609;SDS011;13479;49.044;8.716;2023-05-10T18:13:34;0.88;;;0.20;;
25609;SDS011;13479;49.044;8.716;2023-05-10T18:15:59;1.75;;;0.40;;
25609;SDS011;13479;49.044;8.716;2023-05-10T18:18:25;1.42;;;0.40;;
25609;SDS011;13479;49.044;8.716;2023-05-10T18:20:50;0.57;;;0.32;;
25609;SDS011;13479;49.044;8.716;2023-05-10T18:23:20;1.08;;;0.50;;
25609;SDS011;13479;49.044;8.716;2023-05-10T18:25:46;0.60;;;0.40;;
25609;SDS011;13479;49.044;8.716;2023-05-10T18:28:12;0.77;;;0.32;;
25609;SDS011;13479;49.044;8.716;2023-05-10T18:30:37;2.65;;;0.30;;
25609;SDS011;13479;49.044;8.716;2023-05-10T18:33:02;0.55;;;0.38;;
25609;SDS011;13479;49.044;8.716;2023-05-10T18:35:27;0.25;;;0.25;;
25609;SDS011;13479;49.044;8.716;2023-05-10T18:37:53;2.72;;;0.40;;
25609;SDS011;13479;49.044;8.716;2023-05-10T18:40:18;2.03;;;0.38;;
25609;SDS011;13479;49.044;8.716;2023-05-10T18:42:43;2.50;;;0.40;;
25609;SDS011;13479;49.044;8.716;2023-05-10T18:45:10;1.27;;;0.40;;
25609;SDS011;13479;49.044;8.716;2023-05-10T18:47:36;1.83;;;0.50;;
25609;SDS011;13479;49.044;8.716;2023-05-10T18:50:02;0.63;;;0.50;;
25609;SDS011;13479;49.044;8.716;2023-05-10T18:52:28;3.33;;;0.50;;
25609;SDS011;13479;49.044;8.716;2023-05-10T18:54:54;3.88;;;0.50;;
25609;SDS011;13479;49.044;8.716;2023-05-10T18:57:19;1.25;;;0.57;;